Fearnot, Pennsylvania
Current Conditions -  °F | °C
As of 8:08 AM on Wednesday 22 Oct 2014 (Local Time) from KMUI Reporting Station
Scattered Clouds Scattered Clouds  
Wind Chill: 55°   Ceiling: Unl
Heat Index: 55°   Visibility: 10mi
Dew Point: 52°   Wind: 10mph
Humidity: 88%   Direction: 10°N
Pressure: 29.94"   Gusts: 22mph
Location:  40.6357°N, 76.6093°W
Report Text: KMUI 221208Z AUTO 01009G19KT 10SM FEW022 SCT080 13/11 A2994 RMK AO2
Loading
Personal Weather Stations






























Interactive Weather Map
Tropical Storm Tracking
New forecast layout! Learn more

10-Day Weather Forecast

Advertisements
Track Severe Weather on mobile